Time;durP1;ratioP1;P1;durP2;ratioP2;P2;SDS_P1;SDS_P2;PMS_P1;PMS_P2;Temp;Humidity;BMP_temperature;BMP_pressure;BME280_temperature;BME280_humidity;BME280_pressure;Samples;Min_cycle;Max_cycle;Signal;HPM_P1;HPM_P2
2022/06/30 00:00:26;;;;;;;1999.90;999.90;;;;;;;23.03;62.04;95096.94;5068776;28;20597;-71
2022/06/30 00:02:52;;;;;;;1999.90;999.90;;;;;;;22.86;61.88;95084.88;5069422;28;20477;-72
2022/06/30 00:05:17;;;;;;;1999.90;999.90;;;;;;;22.84;62.30;95096.13;5069683;28;20024;-71
2022/06/30 00:07:43;;;;;;;1999.90;999.90;;;;;;;22.84;62.10;95096.13;5069746;28;20035;-72
2022/06/30 00:10:11;;;;;;;1999.90;999.90;;;;;;;22.82;62.38;95101.13;5068143;28;20066;-72
2022/06/30 00:12:38;;;;;;;1999.90;999.90;;;;;;;22.81;62.39;95088.75;5070362;28;20033;-72
2022/06/30 00:15:04;;;;;;;1999.90;999.90;;;;;;;22.81;62.56;95087.97;5068836;28;20028;-71
2022/06/30 00:17:29;;;;;;;1999.90;999.90;;;;;;;22.88;62.18;95093.47;5068675;28;20086;-72
2022/06/30 00:19:55;;;;;;;1999.90;999.90;;;;;;;22.80;62.16;95089.91;5069124;28;20024;-71
2022/06/30 00:22:20;;;;;;;1999.90;999.90;;;;;;;22.89;62.13;95103.16;5069926;28;20025;-72
2022/06/30 00:24:46;;;;;;;1999.90;999.90;;;;;;;22.67;62.28;95066.22;5070264;28;20492;-72
2022/06/30 00:27:11;;;;;;;1999.90;999.90;;;;;;;22.90;62.36;95101.97;5069366;28;20028;-72
2022/06/30 00:29:38;;;;;;;1999.90;999.90;;;;;;;22.77;62.17;95085.25;5070152;28;20024;-73
2022/06/30 00:32:03;;;;;;;1999.90;999.90;;;;;;;22.88;62.08;95081.78;5068169;28;20028;-72
2022/06/30 00:34:29;;;;;;;1999.90;999.90;;;;;;;22.75;61.96;95068.59;5069246;28;20036;-72
2022/06/30 00:36:55;;;;;;;1999.90;999.90;;;;;;;22.76;62.02;95072.84;5069189;28;20338;-72
2022/06/30 00:39:20;;;;;;;1999.90;999.90;;;;;;;22.84;62.00;95088.00;5069942;28;20090;-72
2022/06/30 00:41:46;;;;;;;1999.90;999.90;;;;;;;22.73;61.93;95070.16;5068439;28;20085;-72
2022/06/30 00:44:13;;;;;;;1999.90;999.90;;;;;;;22.86;61.90;95081.41;5069846;28;20020;-71
2022/06/30 00:46:38;;;;;;;1999.90;999.90;;;;;;;22.75;61.68;95079.44;5067506;28;20119;-72
2022/06/30 00:49:03;;;;;;;1999.90;999.90;;;;;;;22.73;61.85;95084.47;5068517;28;20162;-72
2022/06/30 00:51:29;;;;;;;1999.90;999.90;;;;;;;22.52;61.99;95049.94;5068794;28;20055;-72
2022/06/30 00:53:56;;;;;;;1999.90;999.90;;;;;;;22.61;62.23;95073.97;5068711;28;20025;-71
2022/06/30 00:56:26;;;;;;;1999.90;999.90;;;;;;;22.46;61.97;95050.69;5068966;28;20025;-71
2022/06/30 00:58:55;;;;;;;1999.90;999.90;;;;;;;22.53;62.22;95064.28;5069680;28;20028;-72
2022/06/30 01:01:21;;;;;;;1999.90;999.90;;;;;;;22.56;62.04;95071.63;5067474;28;20170;-71
2022/06/30 01:03:47;;;;;;;1999.90;999.90;;;;;;;22.08;61.94;95014.91;5069530;28;20028;-71
2022/06/30 01:06:13;;;;;;;1999.90;999.90;;;;;;;22.47;62.20;95074.72;5067673;28;20101;-72
2022/06/30 01:08:39;;;;;;;1999.90;999.90;;;;;;;22.43;62.28;95063.06;5069708;28;20029;-71
2022/06/30 01:13:49;;;;;;;1999.90;999.90;;;;;;;22.23;62.73;95040.94;5069964;28;20550;-72
2022/06/30 01:16:14;;;;;;;1999.90;999.90;;;;;;;22.34;62.76;95051.81;5067166;28;20036;-72
2022/06/30 01:18:40;;;;;;;1999.90;999.90;;;;;;;22.33;62.66;95052.97;5068318;28;20063;-71
2022/06/30 01:21:06;;;;;;;1999.90;999.90;;;;;;;22.39;62.46;95061.50;5068245;28;20024;-72
2022/06/30 01:23:31;;;;;;;1999.90;999.90;;;;;;;22.44;62.54;95070.03;5067240;28;20040;-71
2022/06/30 01:25:56;;;;;;;1999.90;999.90;;;;;;;22.43;62.35;95068.50;5068495;28;20385;-72
2022/06/30 01:28:22;;;;;;;1999.90;999.90;;;;;;;22.38;62.52;95063.44;5068570;28;20101;-72
2022/06/30 01:30:47;;;;;;;1999.90;999.90;;;;;;;22.28;62.49;95056.81;5065190;28;20027;-72
2022/06/30 01:33:13;;;;;;;1999.90;999.90;;;;;;;22.21;62.57;95051.34;5067241;28;20104;-72
2022/06/30 01:35:38;;;;;;;1999.90;999.90;;;;;;;22.26;62.77;95052.91;5069243;28;20120;-72
2022/06/30 01:38:04;;;;;;;1999.90;999.90;;;;;;;22.27;62.78;95054.50;5068418;28;20131;-72
2022/06/30 01:40:35;;;;;;;1999.90;999.90;;;;;;;22.18;62.59;95052.13;5068893;28;20025;-72
2022/06/30 01:43:05;;;;;;;1999.90;999.90;;;;;;;22.08;62.82;95058.25;5068371;28;20028;-71
2022/06/30 01:45:31;;;;;;;1999.90;999.90;;;;;;;22.10;63.03;95061.34;5068173;28;20106;-72
2022/06/30 01:47:56;;;;;;;1999.90;999.90;;;;;;;22.08;63.45;95063.66;5067010;28;20029;-72
2022/06/30 01:50:28;;;;;;;1999.90;999.90;;;;;;;21.97;63.28;95058.19;5068004;28;20130;-71
2022/06/30 01:52:53;;;;;;;1999.90;999.90;;;;;;;22.07;63.05;95064.81;5068078;28;20032;-72
2022/06/30 01:55:19;;;;;;;1999.90;999.90;;;;;;;21.96;63.23;95058.56;5066270;28;20036;-72
2022/06/30 01:57:45;;;;;;;1999.90;999.90;;;;;;;21.65;63.20;95020.09;5068930;28;20377;-72
2022/06/30 02:00:13;;;;;;;1999.90;999.90;;;;;;;21.89;63.34;95067.41;5067102;28;20035;-71
2022/06/30 02:02:39;;;;;;;1999.90;999.90;;;;;;;21.80;63.57;95056.13;5068050;28;20029;-72
2022/06/30 02:05:05;;;;;;;1999.90;999.90;;;;;;;21.71;63.81;95053.78;5068175;28;20078;-71
2022/06/30 02:07:32;;;;;;;1999.90;999.90;;;;;;;21.84;63.78;95067.78;5068943;28;20042;-72
2022/06/30 02:09:57;;;;;;;1999.90;999.90;;;;;;;21.89;63.41;95077.47;5067935;28;20028;-72
2022/06/30 02:15:10;;;;;;;1999.90;999.90;;;;;;;21.83;63.56;95093.28;5067507;28;20032;-72
2022/06/30 02:17:36;;;;;;;1999.90;999.90;;;;;;;21.77;63.67;95082.06;5065541;28;20029;-73
2022/06/30 02:20:02;;;;;;;1999.90;999.90;;;;;;;21.71;63.89;95072.72;5066043;28;20501;-72
2022/06/30 02:22:27;;;;;;;1999.90;999.90;;;;;;;21.64;63.91;95051.00;5067448;28;20024;-72
2022/06/30 02:24:53;;;;;;;1999.90;999.90;;;;;;;21.72;64.06;95074.28;5065830;28;20016;-70
2022/06/30 02:27:23;;;;;;;1999.90;999.90;;;;;;;21.76;63.82;95074.31;5068709;28;20107;-72
2022/06/30 02:29:50;;;;;;;1999.90;999.90;;;;;;;21.80;63.95;95083.22;5069715;28;20025;-72
2022/06/30 02:32:15;;;;;;;1999.90;999.90;;;;;;;21.81;63.75;95076.66;5070560;28;20173;-71
2022/06/30 02:34:40;;;;;;;1999.90;999.90;;;;;;;21.65;63.87;95059.91;5071480;28;20928;-72
2022/06/30 02:37:06;;;;;;;1999.90;999.90;;;;;;;21.68;63.58;95068.06;5070787;28;20036;-73
2022/06/30 02:39:31;;;;;;;1999.90;999.90;;;;;;;21.67;64.07;95074.63;5070552;28;20024;-72
2022/06/30 02:41:56;;;;;;;1999.90;999.90;;;;;;;21.73;64.18;95088.59;5071852;28;20024;-72
2022/06/30 02:44:22;;;;;;;1999.90;999.90;;;;;;;21.48;64.02;95066.75;5070849;28;20510;-73
2022/06/30 02:46:50;;;;;;;1999.90;999.90;;;;;;;21.47;64.52;95063.28;5068756;28;20032;-72
2022/06/30 02:49:16;;;;;;;1999.90;999.90;;;;;;;21.64;64.28;95088.13;5071620;28;20034;-73
2022/06/30 02:51:42;;;;;;;1999.90;999.90;;;;;;;21.60;64.07;95084.63;5071748;28;20505;-72
2022/06/30 02:54:07;;;;;;;1999.90;999.90;;;;;;;21.68;64.22;95100.53;5071339;28;20029;-72
2022/06/30 02:56:32;;;;;;;1999.90;999.90;;;;;;;21.53;64.39;95082.66;5071517;28;20059;-72
2022/06/30 02:58:57;;;;;;;1999.90;999.90;;;;;;;21.62;64.37;95090.44;5071916;28;20032;-72
2022/06/30 03:01:23;;;;;;;1999.90;999.90;;;;;;;21.62;64.20;95088.50;5069948;28;20031;-72
2022/06/30 03:03:48;;;;;;;1999.90;999.90;;;;;;;21.71;64.26;95097.09;5069665;28;20035;-72
2022/06/30 03:06:13;;;;;;;1999.90;999.90;;;;;;;21.72;64.41;95100.56;5054583;28;20052;-72
2022/06/30 03:08:39;;;;;;;1999.90;999.90;;;;;;;21.66;64.04;95096.66;5051771;28;20024;-73
2022/06/30 03:11:04;;;;;;;1999.90;999.90;;;;;;;21.52;64.04;95084.56;5067226;28;20123;-72
2022/06/30 03:13:29;;;;;;;1999.90;999.90;;;;;;;21.53;64.47;95098.88;5070571;28;20031;-72
2022/06/30 03:15:55;;;;;;;1999.90;999.90;;;;;;;21.33;64.62;95073.19;5070289;28;20154;-73
2022/06/30 03:18:20;;;;;;;1999.90;999.90;;;;;;;21.41;64.66;95086.44;5068950;28;20385;-72
2022/06/30 03:20:45;;;;;;;1999.90;999.90;;;;;;;21.37;65.11;95095.66;5069998;28;20079;-72
2022/06/30 03:23:10;;;;;;;1999.90;999.90;;;;;;;21.43;64.23;95092.22;5071570;28;20024;-72
2022/06/30 03:25:36;;;;;;;1999.90;999.90;;;;;;;21.43;64.90;95088.75;5068894;28;20097;-72
2022/06/30 03:28:02;;;;;;;1999.90;999.90;;;;;;;21.50;64.80;95107.75;5069856;28;20462;-72
2022/06/30 03:30:28;;;;;;;1999.90;999.90;;;;;;;21.48;64.99;95089.19;5069500;28;20029;-73
2022/06/30 03:32:53;;;;;;;1999.90;999.90;;;;;;;21.51;64.74;95099.25;5070229;28;20025;-72
2022/06/30 03:35:18;;;;;;;1999.90;999.90;;;;;;;21.53;64.71;95098.88;5069092;28;20036;-72
2022/06/30 03:37:44;;;;;;;1999.90;999.90;;;;;;;21.61;64.55;95105.13;5071145;28;20631;-72
2022/06/30 03:40:10;;;;;;;1999.90;999.90;;;;;;;21.65;64.50;95109.44;5066914;28;20120;-72
2022/06/30 03:42:35;;;;;;;1999.90;999.90;;;;;;;21.59;64.33;95096.59;5066348;28;20386;-72
2022/06/30 03:45:01;;;;;;;1999.90;999.90;;;;;;;21.69;64.33;95099.38;5067196;28;20029;-73
2022/06/30 03:47:26;;;;;;;1999.90;999.90;;;;;;;21.73;64.16;95107.53;5067262;28;20029;-73
2022/06/30 03:49:51;;;;;;;1999.90;999.90;;;;;;;21.76;63.95;95104.88;5068721;28;20024;-71
2022/06/30 03:52:17;;;;;;;1999.90;999.90;;;;;;;21.90;63.64;95108.81;5069299;28;20027;-72
2022/06/30 03:54:44;;;;;;;1999.90;999.90;;;;;;;21.84;63.38;95086.72;5067621;28;20024;-72
2022/06/30 03:57:09;;;;;;;1999.90;999.90;;;;;;;21.98;63.25;95094.94;5069516;28;20047;-73
2022/06/30 03:59:36;;;;;;;1999.90;999.90;;;;;;;22.10;62.80;95095.78;5069904;28;20033;-73
2022/06/30 04:02:05;;;;;;;1999.90;999.90;;;;;;;22.17;62.76;95109.41;5067295;28;20013;-72
2022/06/30 04:04:30;;;;;;;1999.90;999.90;;;;;;;22.07;62.26;95083.78;5069805;28;20100;-74
2022/06/30 04:06:55;;;;;;;1999.90;999.90;;;;;;;22.35;61.79;95098.66;5070165;28;20123;-72
2022/06/30 04:09:21;;;;;;;1999.90;999.90;;;;;;;22.31;61.40;95045.19;5069307;28;20024;-73
2022/06/30 04:11:46;;;;;;;1999.90;999.90;;;;;;;22.93;60.22;95095.78;5069324;28;20112;-72
2022/06/30 04:14:11;;;;;;;1999.90;999.90;;;;;;;23.11;59.62;95086.91;5069597;28;20115;-72
2022/06/30 04:16:37;;;;;;;1999.90;999.90;;;;;;;23.52;58.67;95104.38;5067439;28;20388;-72
2022/06/30 04:19:02;;;;;;;1999.90;999.90;;;;;;;23.56;57.67;95072.59;5069448;28;20028;-72
2022/06/30 04:21:27;;;;;;;1999.90;999.90;;;;;;;23.76;56.93;95075.69;5068969;28;20033;-72
2022/06/30 04:23:52;;;;;;;1999.90;999.90;;;;;;;24.22;56.52;95095.78;5069238;28;20027;-72
2022/06/30 04:26:18;;;;;;;1999.90;999.90;;;;;;;24.42;55.76;95102.38;5069706;28;20064;-73
2022/06/30 04:28:43;;;;;;;1999.90;999.90;;;;;;;24.56;55.23;95105.00;5068949;28;20020;-73
2022/06/30 04:33:52;;;;;;;1999.90;999.90;;;;;;;25.01;54.08;95098.97;5050119;28;20119;-73
2022/06/30 04:36:18;;;;;;;1999.90;999.90;;;;;;;25.08;53.58;95083.41;5063532;28;20111;-73
2022/06/30 04:38:43;;;;;;;1999.90;999.90;;;;;;;25.28;52.74;95083.66;5070138;28;20020;-71
2022/06/30 04:41:27;;;;;;;1999.90;999.90;;;;;;;25.54;51.98;95097.84;5068011;28;20023;-73
2022/06/30 04:43:52;;;;;;;1999.90;999.90;;;;;;;25.78;51.92;95110.53;5069912;28;20465;-73
2022/06/30 04:46:17;;;;;;;1999.90;999.90;;;;;;;25.75;51.77;95097.72;5067379;28;20086;-74
2022/06/30 04:48:43;;;;;;;1999.90;999.90;;;;;;;26.00;51.36;95099.44;5069773;28;20740;-73
2022/06/30 04:51:08;;;;;;;1999.90;999.90;;;;;;;25.78;50.81;95039.69;5067104;28;20024;-73
2022/06/30 04:53:34;;;;;;;1999.90;999.90;;;;;;;26.32;50.47;95093.66;5066726;28;20093;-71
2022/06/30 04:55:59;;;;;;;1999.90;999.90;;;;;;;26.48;49.75;95104.03;5064972;28;20112;-72
2022/06/30 04:58:24;;;;;;;1999.90;999.90;;;;;;;26.46;49.20;95081.84;5065452;28;20048;-72
2022/06/30 05:00:50;;;;;;;1999.90;999.90;;;;;;;26.71;49.17;95095.94;5056970;28;20036;-71
2022/06/30 05:03:15;;;;;;;1999.90;999.90;;;;;;;26.72;48.63;95064.78;5068508;28;20020;-67
2022/06/30 05:05:40;;;;;;;1999.90;999.90;;;;;;;26.82;48.02;95054.88;5067259;28;20064;-68
2022/06/30 05:08:06;;;;;;;1999.90;999.90;;;;;;;27.08;48.14;95078.72;5069714;28;20040;-72
2022/06/30 05:10:31;;;;;;;1999.90;999.90;;;;;;;26.55;48.05;94981.19;5067238;28;20024;-67
2022/06/30 05:12:57;;;;;;;1999.90;999.90;;;;;;;27.35;47.46;95081.44;5068463;28;20025;-67
2022/06/30 05:15:23;;;;;;;1999.90;999.90;;;;;;;26.80;46.84;94986.28;5067462;28;21091;-66
2022/06/30 05:17:48;;;;;;;1999.90;999.90;;;;;;;27.40;46.60;95056.38;5067321;28;20725;-67
2022/06/30 05:20:14;;;;;;;1999.90;999.90;;;;;;;27.60;46.01;95069.34;5067317;28;20123;-65
2022/06/30 05:22:40;;;;;;;1999.90;999.90;;;;;;;27.71;46.39;95070.75;5069151;28;20051;-66
2022/06/30 05:27:50;;;;;;;1999.90;999.90;;;;;;;27.85;46.30;95067.00;5070019;28;20529;-67
2022/06/30 05:30:16;;;;;;;1999.90;999.90;;;;;;;28.02;45.79;95086.22;5068317;28;20033;-67
2022/06/30 05:32:42;;;;;;;1999.90;999.90;;;;;;;27.81;45.78;95041.69;5066950;28;20029;-67
2022/06/30 05:35:08;;;;;;;1999.90;999.90;;;;;;;28.05;45.67;95058.03;5068488;28;20031;-67
2022/06/30 05:37:34;;;;;;;1999.90;999.90;;;;;;;28.04;45.57;95053.75;5069244;28;20029;-67
2022/06/30 05:39:59;;;;;;;1999.90;999.90;;;;;;;28.15;45.43;95062.53;5069173;28;20078;-69
2022/06/30 05:42:24;;;;;;;1999.90;999.90;;;;;;;28.07;45.36;95045.50;5068158;28;20107;-68
2022/06/30 05:44:50;;;;;;;1999.90;999.90;;;;;;;28.15;45.51;95055.13;5068560;28;20417;-67
2022/06/30 05:47:15;;;;;;;1999.90;999.90;;;;;;;28.13;44.90;95054.00;5065738;28;20807;-69
2022/06/30 05:49:40;;;;;;;1999.90;999.90;;;;;;;28.13;44.83;95046.56;5065824;28;20028;-68
2022/06/30 05:52:06;;;;;;;1999.90;999.90;;;;;;;28.26;44.52;95068.59;5068976;28;20428;-68
2022/06/30 05:54:31;;;;;;;1999.90;999.90;;;;;;;28.40;44.74;95065.59;5069425;28;20028;-70
2022/06/30 05:56:56;;;;;;;1999.90;999.90;;;;;;;28.19;44.49;95038.63;5067382;28;20467;-68
2022/06/30 05:59:22;;;;;;;1999.90;999.90;;;;;;;28.52;44.31;95093.53;5066581;28;20487;-69
2022/06/30 06:01:47;;;;;;;1999.90;999.90;;;;;;;28.56;44.36;95083.28;5069213;28;20763;-68
2022/06/30 06:04:13;;;;;;;1999.90;999.90;;;;;;;28.54;44.68;95080.19;5055618;28;20040;-67
2022/06/30 06:06:38;;;;;;;1999.90;999.90;;;;;;;28.49;44.56;95079.47;5053639;28;20036;-71
2022/06/30 06:09:04;;;;;;;1999.90;999.90;;;;;;;28.69;44.04;95087.69;5058711;28;20031;-67
2022/06/30 06:11:32;;;;;;;1999.90;999.90;;;;;;;28.49;43.37;95048.63;5071598;28;20021;-68
2022/06/30 06:13:57;;;;;;;1999.90;999.90;;;;;;;28.68;43.46;95086.16;5061634;28;20040;-71
2022/06/30 06:16:22;;;;;;;1999.90;999.90;;;;;;;28.38;43.42;95073.47;5053288;28;20389;-68
2022/06/30 06:18:49;;;;;;;1999.90;999.90;;;;;;;28.55;43.59;95098.16;5067756;28;20116;-72
2022/06/30 06:21:14;;;;;;;1999.90;999.90;;;;;;;28.40;43.75;95076.53;5073023;28;20480;-73
2022/06/30 06:23:40;;;;;;;1999.90;999.90;;;;;;;28.54;43.74;95078.22;5071129;28;20032;-72
2022/06/30 06:26:05;;;;;;;1999.90;999.90;;;;;;;28.61;43.65;95080.03;5072973;28;20060;-69
2022/06/30 06:31:14;;;;;;;1999.90;999.90;;;;;;;28.58;43.24;95070.72;5072984;28;20039;-69
2022/06/30 06:33:39;;;;;;;1999.90;999.90;;;;;;;28.67;43.67;95089.31;5068431;28;20029;-69
2022/06/30 06:36:05;;;;;;;1999.90;999.90;;;;;;;28.69;43.06;95074.00;5071408;28;20024;-70
2022/06/30 06:38:30;;;;;;;1999.90;999.90;;;;;;;28.79;43.16;95090.63;5070086;28;20431;-69
2022/06/30 06:40:56;;;;;;;1999.90;999.90;;;;;;;28.81;42.60;95088.22;5070403;28;20032;-72
2022/06/30 06:43:21;;;;;;;1999.90;999.90;;;;;;;28.61;42.86;95071.81;5070465;28;20024;-71
2022/06/30 06:45:46;;;;;;;1999.90;999.90;;;;;;;28.66;43.09;95079.53;5071560;28;20032;-71
2022/06/30 06:48:11;;;;;;;1999.90;999.90;;;;;;;28.74;43.13;95070.78;5068865;28;20028;-71
2022/06/30 06:50:37;;;;;;;1999.90;999.90;;;;;;;28.90;43.37;95086.47;5072289;28;20035;-71
2022/06/30 06:53:03;;;;;;;1999.90;999.90;;;;;;;28.62;42.81;95070.66;5070469;28;20456;-69
2022/06/30 06:55:29;;;;;;;1999.90;999.90;;;;;;;28.65;42.40;95058.84;5071682;28;20477;-70
2022/06/30 06:57:55;;;;;;;1999.90;999.90;;;;;;;28.72;42.65;95061.47;5070634;28;20032;-70
2022/06/30 07:00:20;;;;;;;1999.90;999.90;;;;;;;28.59;42.84;95071.50;5069543;28;20538;-70
2022/06/30 07:02:46;;;;;;;1999.90;999.90;;;;;;;28.42;43.45;95048.78;5070368;28;20025;-70
2022/06/30 07:05:11;;;;;;;1999.90;999.90;;;;;;;28.56;42.55;95064.91;5072378;28;20025;-70
2022/06/30 07:07:37;;;;;;;1999.90;999.90;;;;;;;28.73;42.68;95080.19;5070079;28;20041;-70
2022/06/30 07:10:05;;;;;;;1999.90;999.90;;;;;;;28.56;41.96;95044.97;5072027;28;20029;-71
2022/06/30 07:12:31;;;;;;;1999.90;999.90;;;;;;;28.79;42.42;95066.00;5072089;28;20016;-72
2022/06/30 07:14:56;;;;;;;1999.90;999.90;;;;;;;28.31;43.45;95045.47;5071938;28;20033;-72
2022/06/30 07:17:22;;;;;;;1999.90;999.90;;;;;;;28.32;42.93;95004.00;5069894;28;20066;-71
2022/06/30 07:19:47;;;;;;;1999.90;999.90;;;;;;;28.66;42.94;95042.03;5069803;28;20021;-71
2022/06/30 07:22:13;;;;;;;1999.90;999.90;;;;;;;28.43;43.05;95040.13;5069804;28;20469;-71
2022/06/30 07:24:38;;;;;;;1999.90;999.90;;;;;;;28.67;43.43;95043.56;5070688;28;20024;-71
2022/06/30 07:27:04;;;;;;;1999.90;999.90;;;;;;;28.24;43.66;95051.81;5071945;28;20031;-70
2022/06/30 07:29:30;;;;;;;1999.90;999.90;;;;;;;28.54;43.18;95064.53;5070751;28;20025;-70
2022/06/30 07:31:56;;;;;;;1999.90;999.90;;;;;;;28.64;43.14;95038.16;5070105;28;20116;-71
2022/06/30 07:34:21;;;;;;;1999.90;999.90;;;;;;;28.61;42.92;95041.72;5069679;28;20493;-71
2022/06/30 07:36:48;;;;;;;1999.90;999.90;;;;;;;28.71;42.37;95047.00;5070264;28;20028;-71
2022/06/30 07:39:13;;;;;;;1999.90;999.90;;;;;;;28.71;41.87;95057.16;5069944;28;20036;-71
2022/06/30 07:41:38;;;;;;;1999.90;999.90;;;;;;;28.74;42.38;95026.97;5069825;28;20054;-72
2022/06/30 07:44:04;;;;;;;1999.90;999.90;;;;;;;28.96;42.08;95049.19;5070477;28;20024;-73
2022/06/30 07:46:29;;;;;;;1999.90;999.90;;;;;;;29.09;42.24;95045.81;5071650;28;20028;-73
2022/06/30 07:48:55;;;;;;;1999.90;999.90;;;;;;;29.29;41.84;95054.72;5068634;28;20024;-72
2022/06/30 07:51:21;;;;;;;1999.90;999.90;;;;;;;29.31;42.20;95048.81;5069850;28;20025;-73
2022/06/30 07:53:47;;;;;;;1999.90;999.90;;;;;;;29.29;41.89;95053.97;5068689;28;20082;-72
2022/06/30 07:56:13;;;;;;;1999.90;999.90;;;;;;;29.44;41.45;95053.19;5070111;28;20107;-73
2022/06/30 07:58:38;;;;;;;1999.90;999.90;;;;;;;29.05;40.83;95015.00;5069111;28;20031;-73
2022/06/30 08:01:04;;;;;;;1999.90;999.90;;;;;;;29.19;41.52;95009.97;5070004;28;20143;-73
2022/06/30 08:03:30;;;;;;;1999.90;999.90;;;;;;;29.57;40.88;95050.56;5068165;28;20459;-73
2022/06/30 08:05:55;;;;;;;1999.90;999.90;;;;;;;29.42;40.39;95030.91;5069752;28;20132;-74
2022/06/30 08:08:21;;;;;;;1999.90;999.90;;;;;;;29.62;40.20;95032.81;5067682;28;20112;-74
2022/06/30 08:10:47;;;;;;;1999.90;999.90;;;;;;;29.60;40.78;95037.97;5070604;28;20546;-74
2022/06/30 08:13:12;;;;;;;1999.90;999.90;;;;;;;29.40;40.35;94986.75;5068931;28;20108;-74
2022/06/30 08:15:38;;;;;;;1999.90;999.90;;;;;;;29.75;40.46;95036.41;5071007;28;20432;-73
2022/06/30 08:18:05;;;;;;;1999.90;999.90;;;;;;;29.98;40.17;95047.16;5070138;28;20017;-73
2022/06/30 08:20:32;;;;;;;1999.90;999.90;;;;;;;30.04;40.06;95055.63;5051183;28;20037;-73
2022/06/30 08:22:58;;;;;;;1999.90;999.90;;;;;;;29.80;40.03;95037.88;5051029;28;20472;-73
2022/06/30 08:25:23;;;;;;;1999.90;999.90;;;;;;;29.74;39.67;95032.13;5070521;28;20024;-73
2022/06/30 08:27:49;;;;;;;1999.90;999.90;;;;;;;29.84;40.24;95019.34;5068551;28;20487;-70
2022/06/30 08:30:14;;;;;;;1999.90;999.90;;;;;;;29.74;40.05;95043.88;5068207;28;20055;-73
2022/06/30 08:32:40;;;;;;;1999.90;999.90;;;;;;;29.80;40.24;95010.44;5070535;28;20029;-73
2022/06/30 08:35:06;;;;;;;1999.90;999.90;;;;;;;29.63;40.09;94969.34;5067144;28;20044;-74
2022/06/30 08:37:31;;;;;;;1999.90;999.90;;;;;;;29.90;39.43;95012.91;5070630;28;20028;-73
2022/06/30 08:42:41;;;;;;;1999.90;999.90;;;;;;;29.62;40.11;95030.84;5067462;28;20039;-73
2022/06/30 08:45:13;;;;;;;1999.90;999.90;;;;;;;29.78;40.65;95021.84;5070527;28;20024;-73
2022/06/30 08:47:40;;;;;;;1999.90;999.90;;;;;;;29.39;40.58;95026.31;5070278;28;20035;-73
2022/06/30 08:50:10;;;;;;;1999.90;999.90;;;;;;;29.62;40.13;95025.38;5067491;28;20035;-73
2022/06/30 08:52:46;;;;;;;1999.90;999.90;;;;;;;29.48;40.30;94998.28;5070288;28;20016;-73
2022/06/30 08:55:14;;;;;;;1999.90;999.90;;;;;;;29.61;39.70;95001.91;5069022;28;20385;-73
2022/06/30 08:57:42;;;;;;;1999.90;999.90;;;;;;;29.71;39.64;94983.66;5068617;28;20020;-74
2022/06/30 09:00:08;;;;;;;1999.90;999.90;;;;;;;29.72;39.73;94976.97;5068917;28;20034;-73
2022/06/30 09:02:34;;;;;;;1999.90;999.90;;;;;;;29.99;39.39;95002.09;5069753;28;20028;-73
2022/06/30 09:04:59;;;;;;;1999.90;999.90;;;;;;;29.98;39.61;95024.44;5068090;28;20050;-73
2022/06/30 09:07:25;;;;;;;1999.90;999.90;;;;;;;29.87;39.73;95005.53;5069943;28;20513;-73
2022/06/30 09:09:50;;;;;;;1999.90;999.90;;;;;;;29.71;39.94;94984.41;5068200;28;20040;-74
2022/06/30 09:12:18;;;;;;;1999.90;999.90;;;;;;;29.56;39.97;94993.44;5067666;28;20020;-73
2022/06/30 09:14:48;;;;;;;1999.90;999.90;;;;;;;29.07;40.35;94955.84;5067814;28;20031;-73
2022/06/30 09:17:18;;;;;;;1999.90;999.90;;;;;;;30.02;40.02;95017.66;5070180;28;20067;-73
2022/06/30 09:20:02;;;;;;;1999.90;999.90;;;;;;;30.12;39.46;95017.81;5066614;28;20028;-73
2022/06/30 09:22:34;;;;;;;1999.90;999.90;;;;;;;30.34;39.52;94996.06;5068610;28;20439;-73
2022/06/30 09:25:04;;;;;;;1999.90;999.90;;;;;;;30.39;39.09;94979.81;5068163;28;20516;-74
2022/06/30 09:27:33;;;;;;;1999.90;999.90;;;;;;;30.12;38.90;94977.47;5069657;28;20384;-73
2022/06/30 09:30:03;;;;;;;1999.90;999.90;;;;;;;30.23;38.80;95010.09;5069578;28;20080;-75
2022/06/30 09:32:28;;;;;;;1999.90;999.90;;;;;;;29.94;38.53;94999.88;5068541;28;20025;-74
2022/06/30 09:35:07;;;;;;;1999.90;999.90;;;;;;;29.57;39.40;95008.69;5067679;28;20021;-74
2022/06/30 09:37:32;;;;;;;1999.90;999.90;;;;;;;29.22;40.45;94998.13;5066838;28;20028;-71
2022/06/30 09:39:58;;;;;;;1999.90;999.90;;;;;;;29.73;40.13;95001.19;5070373;28;20039;-74
2022/06/30 09:42:37;;;;;;;1999.90;999.90;;;;;;;30.35;38.96;95014.06;5070869;28;20029;-72
2022/06/30 09:45:04;;;;;;;1999.90;999.90;;;;;;;30.43;39.14;95001.69;5070392;28;20028;-72
2022/06/30 09:47:30;;;;;;;1999.90;999.90;;;;;;;29.74;39.36;94956.16;5071456;28;20046;-73
2022/06/30 09:50:00;;;;;;;1999.90;999.90;;;;;;;30.51;38.91;94992.06;5068501;28;20430;-72
2022/06/30 09:52:26;;;;;;;1999.90;999.90;;;;;;;30.89;38.53;94999.56;5072927;28;20063;-72
2022/06/30 09:55:01;;;;;;;1999.90;999.90;;;;;;;31.32;37.42;95004.50;5070582;28;20527;-72
2022/06/30 09:57:35;;;;;;;1999.90;999.90;;;;;;;31.41;37.13;94981.84;5072160;28;20479;-83
2022/06/30 10:00:08;;;;;;;1999.90;999.90;;;;;;;30.99;37.45;95006.72;5073498;28;20028;-71
2022/06/30 10:02:37;;;;;;;1999.90;999.90;;;;;;;31.11;37.31;95007.91;5072085;28;20047;-69
2022/06/30 10:05:05;;;;;;;1999.90;999.90;;;;;;;31.00;36.57;94998.03;5071600;28;20384;-69
2022/06/30 10:07:35;;;;;;;1999.90;999.90;;;;;;;30.96;36.80;95002.84;5073229;28;20020;-71
2022/06/30 10:10:03;;;;;;;1999.90;999.90;;;;;;;31.19;37.06;95004.50;5072409;28;20025;-72
2022/06/30 10:12:28;;;;;;;1999.90;999.90;;;;;;;31.04;36.52;94997.91;5070621;28;20056;-69
2022/06/30 10:14:54;;;;;;;1999.90;999.90;;;;;;;30.69;37.72;94970.31;5073351;28;20113;-70
2022/06/30 10:17:26;;;;;;;1999.90;999.90;;;;;;;31.04;36.85;94993.19;5071735;28;20082;-72
2022/06/30 10:19:52;;;;;;;1999.90;999.90;;;;;;;31.07;37.27;94980.56;5071035;28;20099;-69
2022/06/30 10:22:19;;;;;;;1999.90;999.90;;;;;;;30.90;35.84;94963.41;5072890;28;20060;-73
2022/06/30 10:24:46;;;;;;;1999.90;999.90;;;;;;;31.17;36.11;94975.91;5070830;28;20104;-68
2022/06/30 10:27:13;;;;;;;1999.90;999.90;;;;;;;31.17;36.20;94982.22;5072929;28;20033;-68
2022/06/30 10:29:42;;;;;;;1999.90;999.90;;;;;;;31.10;35.65;94965.94;5071772;28;20614;-68
2022/06/30 10:32:20;;;;;;;1999.90;999.90;;;;;;;31.16;36.27;94982.63;5070407;28;20027;-68
2022/06/30 10:34:57;;;;;;;1999.90;999.90;;;;;;;31.39;35.67;94965.03;5069644;28;20117;-68
2022/06/30 10:37:33;;;;;;;1999.90;999.90;;;;;;;30.96;35.78;94927.94;5071545;28;20020;-68
2022/06/30 10:40:02;;;;;;;1999.90;999.90;;;;;;;30.75;36.13;94960.34;5071223;28;20540;-68
2022/06/30 10:42:48;;;;;;;1999.90;999.90;;;;;;;30.51;36.56;94981.06;5070619;28;20032;-68
2022/06/30 10:45:26;;;;;;;1999.90;999.90;;;;;;;30.99;35.70;94969.03;5071541;28;20029;-68
2022/06/30 10:48:08;;;;;;;1999.90;999.90;;;;;;;30.96;35.67;94964.41;5070661;28;20028;-68
2022/06/30 10:50:43;;;;;;;1999.90;999.90;;;;;;;31.02;36.02;94968.16;5070907;28;20466;-68
2022/06/30 10:53:49;;;;;;;1999.90;999.90;;;;;;;31.13;35.72;94967.03;5072630;28;20099;-68
2022/06/30 10:56:14;;;;;;;1999.90;999.90;;;;;;;31.28;35.69;94949.69;5051167;28;20044;-68
2022/06/30 10:59:10;;;;;;;1999.90;999.90;;;;;;;31.00;34.55;94967.03;5069947;28;20499;-68
2022/06/30 11:01:36;;;;;;;1999.90;999.90;;;;;;;31.34;34.65;94973.84;5071707;28;20370;-68
2022/06/30 11:04:03;;;;;;;1999.90;999.90;;;;;;;31.42;35.08;94956.66;5070624;28;20028;-68
2022/06/30 11:06:58;;;;;;;1999.90;999.90;;;;;;;31.50;34.93;94960.72;5070747;28;20102;-68
2022/06/30 11:09:48;;;;;;;1999.90;999.90;;;;;;;31.51;35.36;94958.72;5065519;28;20073;-68